Terminal Aerodrome Forecast
Issued by NWS Cleveland, OH

Home | Current Version | Previous Version | Graphics & Text | Print | Product List | Glossary On
Versions: 1 2 3 4 5 6 7 8 9 10 11 12 13 14 15
000
FTUS41 KCLE 191137
TAFCAK
TAF
KCAK 191137Z 1912/2012 16011KT 6SM -SHRA SCT035 BKN060
      WS020/21040KT
      TEMPO 1912/1914 3SM -SHRA BKN020
     FM191400 19012KT 3SM SHRA BKN008 OVC020 WS020/21045KT
     FM192000 21014G20KT 6SM BR VCSH BKN012 OVC050=

USA.gov is the U.S. government's official web portal to all federal, state and local government web resources and services.